Time,TemperatureF,DewpointF,PressureIn,WindDirection,WindDirectionDegrees,WindSpeedMPH,WindSpeedGustMPH,Humidity,HourlyPrecipIn,Conditions,Clouds,dailyrainin,SoftwareType,DateUTC
2013-02-16 00:01:00,8.0,5.0,29.92,North,355,0.0,1.0,89,0.00,,,0.00,,2013-02-16 09:01:00,
2013-02-16 00:11:00,8.0,5.0,29.92,North,355,0.0,1.0,89,0.00,,,0.00,,2013-02-16 09:11:00,
2013-02-16 00:21:00,7.0,4.0,29.92,North,355,0.0,1.0,88,0.00,,,0.00,,2013-02-16 09:21:00,
2013-02-16 00:31:00,7.0,4.0,29.93,North,355,0.0,1.0,88,0.00,,,0.00,,2013-02-16 09:31:00,
2013-02-16 00:42:00,7.0,4.0,29.93,North,355,0.0,1.0,88,0.00,,,0.00,,2013-02-16 09:42:00,
2013-02-16 00:51:00,7.0,4.0,29.93,North,355,0.0,1.0,88,0.00,,,0.00,,2013-02-16 09:51:00,
2013-02-16 01:01:00,6.0,3.0,29.96,North,355,0.0,1.0,88,0.00,,,0.00,,2013-02-16 10:01:00,
2013-02-16 01:11:00,6.0,3.0,29.96,North,355,0.0,1.0,88,0.00,,,0.00,,2013-02-16 10:11:00,
2013-02-16 01:21:00,6.0,3.0,29.95,North,355,0.0,1.0,88,0.00,,,0.00,,2013-02-16 10:21:00,
2013-02-16 01:31:00,5.0,2.0,29.97,North,355,0.0,1.0,88,0.00,,,0.00,,2013-02-16 10:31:00,
2013-02-16 01:41:00,5.0,2.0,29.97,North,355,0.0,1.0,88,0.00,,,0.00,,2013-02-16 10:41:00,
2013-02-16 01:51:00,5.0,2.0,29.97,North,355,0.0,1.0,88,0.00,,,0.00,,2013-02-16 10:51:00,
2013-02-16 02:02:00,4.0,1.0,29.96,North,355,0.0,0.0,87,0.00,,,0.00,,2013-02-16 11:02:00,
2013-02-16 02:31:00,4.0,1.0,29.97,North,355,0.0,0.0,88,0.00,,,0.00,,2013-02-16 11:31:00,
2013-02-16 02:42:00,4.0,1.0,29.97,North,355,0.0,0.0,88,0.00,,,0.00,,2013-02-16 11:42:00,
2013-02-16 02:52:00,4.0,1.0,29.97,North,355,0.0,1.0,88,0.00,,,0.00,,2013-02-16 11:52:00,
2013-02-16 03:01:00,6.0,4.0,29.97,South,181,0.0,1.0,93,0.00,,,0.00,,2013-02-16 12:01:00,
2013-02-16 03:12:00,6.0,4.0,29.97,South,181,0.0,1.0,93,0.00,,,0.00,,2013-02-16 12:12:00,
2013-02-16 03:22:00,7.0,5.0,29.96,South,180,0.0,2.0,91,0.00,,,0.00,,2013-02-16 12:22:00,
2013-02-16 03:32:00,8.0,6.0,29.97,South,171,2.0,5.0,92,0.00,,,0.00,,2013-02-16 12:32:00,
2013-02-16 03:42:00,8.0,6.0,29.97,South,171,2.0,5.0,92,0.00,,,0.00,,2013-02-16 12:42:00,
2013-02-16 03:52:00,8.0,6.0,29.97,South,171,2.0,5.0,92,0.00,,,0.00,,2013-02-16 12:52:00,
2013-02-16 04:01:00,16.0,14.0,29.98,SE,125,2.0,10.0,91,0.00,,,0.00,,2013-02-16 13:01:00,
2013-02-16 04:11:00,16.0,13.0,29.97,SSE,165,2.0,9.0,88,0.00,,,0.00,,2013-02-16 13:11:00,
2013-02-16 04:21:00,16.0,13.0,29.97,SSE,165,2.0,9.0,88,0.00,,,0.00,,2013-02-16 13:21:00,
2013-02-16 04:31:00,16.0,13.0,29.98,SW,231,1.0,9.0,87,0.00,,,0.00,,2013-02-16 13:31:00,
2013-02-16 04:41:00,16.0,13.0,29.98,SW,231,1.0,9.0,87,0.00,,,0.00,,2013-02-16 13:41:00,
2013-02-16 04:51:00,16.0,13.0,29.97,WSW,240,2.0,8.0,86,0.00,,,0.00,,2013-02-16 13:51:00,
2013-02-16 05:01:00,19.0,16.0,29.97,South,191,5.0,14.0,88,0.00,,,0.00,,2013-02-16 14:01:00,
2013-02-16 05:11:00,19.0,16.0,29.97,South,191,5.0,14.0,88,0.00,,,0.00,,2013-02-16 14:11:00,
2013-02-16 05:32:00,21.0,17.0,29.97,South,187,4.0,12.0,85,0.00,,,0.00,,2013-02-16 14:32:00,
2013-02-16 05:41:00,21.0,17.0,29.97,South,187,4.0,12.0,85,0.00,,,0.00,,2013-02-16 14:41:00,
2013-02-16 05:52:00,21.0,17.0,29.97,South,187,4.0,12.0,85,0.00,,,0.00,,2013-02-16 14:52:00,
2013-02-16 06:01:00,21.0,16.0,29.97,SSW,208,5.0,17.0,82,0.00,,,0.00,,2013-02-16 15:01:00,
2013-02-16 06:11:00,21.0,16.0,29.97,SSW,208,5.0,17.0,82,0.00,,,0.00,,2013-02-16 15:11:00,
2013-02-16 06:21:00,21.0,17.0,29.98,South,182,3.0,10.0,83,0.00,,,0.00,,2013-02-16 15:21:00,
2013-02-16 06:31:00,21.0,17.0,29.97,South,185,5.0,10.0,84,0.00,,,0.00,,2013-02-16 15:31:00,
2013-02-16 06:41:00,21.0,17.0,29.97,South,185,5.0,10.0,84,0.00,,,0.00,,2013-02-16 15:41:00,
2013-02-16 06:51:00,21.0,17.0,29.98,South,182,3.0,12.0,84,0.00,,,0.00,,2013-02-16 15:51:00,
2013-02-16 07:01:00,21.0,16.0,29.98,ESE,110,2.0,8.0,81,0.00,,,0.00,,2013-02-16 16:01:00,
2013-02-16 07:32:00,19.0,14.0,29.98,South,176,2.0,6.0,82,0.00,,,0.00,,2013-02-16 16:32:00,
2013-02-16 07:41:00,19.0,14.0,29.98,South,176,2.0,6.0,82,0.00,,,0.00,,2013-02-16 16:41:00,
2013-02-16 07:51:00,19.0,14.0,29.98,South,176,2.0,6.0,82,0.00,,,0.00,,2013-02-16 16:51:00,
2013-02-16 08:01:00,20.0,16.0,29.98,South,176,2.0,10.0,85,0.00,,,0.00,,2013-02-16 17:01:00,
2013-02-16 08:21:00,20.0,16.0,29.98,South,183,4.0,9.0,86,0.00,,,0.00,,2013-02-16 17:21:00,
2013-02-16 08:31:00,21.0,17.0,29.98,SW,216,4.0,9.0,85,0.00,,,0.00,,2013-02-16 17:31:00,
2013-02-16 08:41:00,21.0,17.0,29.98,SW,216,4.0,9.0,85,0.00,,,0.00,,2013-02-16 17:41:00,
2013-02-16 08:52:00,21.0,17.0,29.97,SW,220,2.0,9.0,84,0.00,,,0.00,,2013-02-16 17:52:00,
2013-02-16 09:01:00,20.0,15.0,29.98,SSE,150,0.0,3.0,81,0.00,,,0.00,,2013-02-16 18:01:00,
2013-02-16 09:11:00,19.0,14.0,29.98,SSE,150,0.0,2.0,81,0.00,,,0.00,,2013-02-16 18:11:00,
2013-02-16 09:21:00,19.0,14.0,29.98,SSE,150,0.0,2.0,81,0.00,,,0.00,,2013-02-16 18:21:00,
2013-02-16 09:32:00,18.0,13.0,29.98,SSE,150,0.0,2.0,82,0.00,,,0.00,,2013-02-16 18:32:00,
2013-02-16 09:41:00,18.0,13.0,29.98,SSE,150,0.0,2.0,82,0.00,,,0.00,,2013-02-16 18:41:00,
2013-02-16 09:51:00,16.0,12.0,29.98,SSE,150,0.0,1.0,83,0.00,,,0.00,,2013-02-16 18:51:00,
2013-02-16 10:02:00,15.0,12.0,29.98,SSE,150,0.0,2.0,86,0.00,,,0.00,,2013-02-16 19:02:00,
2013-02-16 10:11:00,15.0,12.0,29.98,SSE,150,0.0,2.0,86,0.00,,,0.00,,2013-02-16 19:11:00,
2013-02-16 10:21:00,15.0,12.0,29.97,SSE,150,0.0,1.0,86,0.00,,,0.00,,2013-02-16 19:21:00,
2013-02-16 10:31:00,15.0,12.0,29.97,SE,128,1.0,3.0,88,0.00,,,0.00,,2013-02-16 19:31:00,
2013-02-16 10:42:00,15.0,12.0,29.97,SE,128,1.0,3.0,88,0.00,,,0.00,,2013-02-16 19:42:00,
2013-02-16 10:52:00,16.0,13.0,29.98,ESE,119,1.0,3.0,87,0.00,,,0.00,,2013-02-16 19:52:00,
2013-02-16 11:01:00,17.0,14.0,29.98,SE,132,0.0,3.0,86,0.00,,,0.00,,2013-02-16 20:01:00,
2013-02-16 11:11:00,20.0,15.0,29.99,SE,138,1.0,3.0,81,0.00,,,0.00,,2013-02-16 20:11:00,
2013-02-16 11:21:00,20.0,15.0,29.99,SE,138,1.0,3.0,81,0.00,,,0.00,,2013-02-16 20:21:00,
2013-02-16 11:32:00,22.0,16.0,29.98,ESE,114,2.0,5.0,77,0.00,,,0.00,,2013-02-16 20:32:00,
2013-02-16 11:42:00,22.0,16.0,29.98,ESE,114,2.0,5.0,77,0.00,,,0.00,,2013-02-16 20:42:00,
2013-02-16 11:52:00,22.0,16.0,29.98,ESE,114,2.0,5.0,77,0.00,,,0.00,,2013-02-16 20:52:00,
2013-02-16 12:02:00,23.0,16.0,29.98,East,100,2.0,6.0,74,0.00,,,0.00,,2013-02-16 21:02:00,
2013-02-16 12:11:00,23.0,16.0,29.98,East,100,2.0,6.0,74,0.00,,,0.00,,2013-02-16 21:11:00,
2013-02-16 12:21:00,24.0,16.0,29.98,East,90,1.0,3.0,72,0.00,,,0.00,,2013-02-16 21:21:00,
2013-02-16 12:31:00,25.0,17.0,29.98,ENE,76,1.0,5.0,70,0.00,,,0.00,,2013-02-16 21:31:00,
2013-02-16 12:41:00,25.0,17.0,29.98,ENE,76,1.0,5.0,70,0.00,,,0.00,,2013-02-16 21:41:00,
2013-02-16 12:52:00,25.0,17.0,29.98,ESE,102,2.0,7.0,70,0.00,,,0.00,,2013-02-16 21:52:00,
2013-02-16 13:01:00,25.0,17.0,29.99,ENE,59,1.0,5.0,72,0.00,,,0.00,,2013-02-16 22:01:00,
2013-02-16 13:11:00,25.0,17.0,29.99,ENE,59,1.0,5.0,72,0.00,,,0.00,,2013-02-16 22:11:00,
2013-02-16 13:21:00,25.0,18.0,29.99,NE,38,2.0,5.0,73,0.00,,,0.00,,2013-02-16 22:21:00,
2013-02-16 13:31:00,25.0,17.0,29.98,NE,49,1.0,5.0,71,0.00,,,0.00,,2013-02-16 22:31:00,
2013-02-16 13:42:00,25.0,17.0,29.98,NE,49,1.0,5.0,71,0.00,,,0.00,,2013-02-16 22:42:00,
2013-02-16 13:51:00,26.0,18.0,29.98,ENE,69,1.0,6.0,71,0.00,,,0.00,,2013-02-16 22:51:00,
2013-02-16 14:02:00,26.0,18.0,29.98,NE,51,2.0,5.0,70,0.00,,,0.00,,2013-02-16 23:02:00,
2013-02-16 14:11:00,26.0,18.0,29.98,NE,51,2.0,5.0,70,0.00,,,0.00,,2013-02-16 23:11:00,
2013-02-16 14:21:00,26.0,18.0,29.98,NE,51,2.0,5.0,70,0.00,,,0.00,,2013-02-16 23:21:00,
2013-02-16 14:31:00,26.0,17.0,29.97,NE,42,2.0,5.0,69,0.00,,,0.00,,2013-02-16 23:31:00,
2013-02-16 14:42:00,26.0,17.0,29.97,NE,42,2.0,5.0,69,0.00,,,0.00,,2013-02-16 23:42:00,
2013-02-16 14:52:00,26.0,17.0,29.97,NE,42,2.0,5.0,69,0.00,,,0.00,,2013-02-16 23:52:00,
2013-02-16 15:01:00,26.0,18.0,29.96,ENE,60,3.0,7.0,70,0.00,,,0.00,,2013-02-17 00:01:00,
2013-02-16 15:11:00,26.0,18.0,29.96,ENE,60,3.0,7.0,70,0.00,,,0.00,,2013-02-17 00:11:00,
2013-02-16 15:21:00,26.0,18.0,29.96,NE,46,5.0,7.0,72,0.00,,,0.00,,2013-02-17 00:21:00,
2013-02-16 15:31:00,25.0,18.0,29.95,ENE,73,2.0,7.0,75,0.00,,,0.00,,2013-02-17 00:31:00,
2013-02-16 15:41:00,25.0,18.0,29.95,ENE,73,2.0,7.0,75,0.00,,,0.00,,2013-02-17 00:41:00,
2013-02-16 15:51:00,25.0,18.0,29.94,East,83,4.0,9.0,75,0.00,,,0.00,,2013-02-17 00:51:00,
2013-02-16 16:01:00,24.0,18.0,29.94,NE,46,3.0,10.0,78,0.00,,,0.00,,2013-02-17 01:01:00,
2013-02-16 16:11:00,24.0,18.0,29.94,NE,46,3.0,10.0,78,0.00,,,0.00,,2013-02-17 01:11:00,
2013-02-16 16:21:00,24.0,18.0,29.94,ENE,71,2.0,9.0,79,0.00,,,0.00,,2013-02-17 01:21:00,
2013-02-16 16:31:00,24.0,19.0,29.93,ENE,74,3.0,8.0,81,0.00,,,0.00,,2013-02-17 01:31:00,
2013-02-16 16:41:00,24.0,19.0,29.93,ENE,74,3.0,8.0,81,0.00,,,0.00,,2013-02-17 01:41:00,
2013-02-16 16:52:00,23.0,18.0,29.92,NE,49,4.0,10.0,82,0.00,,,0.00,,2013-02-17 01:52:00,
2013-02-16 17:01:00,23.0,18.0,29.93,NE,43,3.0,8.0,82,0.00,,,0.00,,2013-02-17 02:01:00,
2013-02-16 17:11:00,23.0,18.0,29.93,NE,43,3.0,8.0,82,0.00,,,0.00,,2013-02-17 02:11:00,
2013-02-16 17:21:00,23.0,18.0,29.93,NE,43,3.0,8.0,82,0.00,,,0.00,,2013-02-17 02:21:00,
2013-02-16 17:31:00,22.0,18.0,29.92,ENE,74,3.0,10.0,84,0.00,,,0.00,,2013-02-17 02:31:00,
2013-02-16 17:41:00,22.0,18.0,29.92,ENE,74,3.0,10.0,84,0.00,,,0.00,,2013-02-17 02:41:00,
2013-02-16 17:52:00,22.0,18.0,29.91,ENE,65,4.0,12.0,84,0.00,,,0.00,,2013-02-17 02:52:00,
2013-02-16 18:01:00,21.0,17.0,29.91,ENE,62,4.0,13.0,84,0.00,,,0.00,,2013-02-17 03:01:00,
2013-02-16 18:11:00,21.0,17.0,29.91,ENE,62,4.0,13.0,84,0.00,,,0.00,,2013-02-17 03:11:00,
2013-02-16 18:21:00,21.0,17.0,29.90,NE,53,5.0,12.0,85,0.00,,,0.00,,2013-02-17 03:21:00,
2013-02-16 18:31:00,21.0,17.0,29.90,ENE,58,3.0,10.0,85,0.00,,,0.00,,2013-02-17 03:31:00,
2013-02-16 18:42:00,21.0,17.0,29.90,ENE,58,3.0,10.0,85,0.00,,,0.00,,2013-02-17 03:42:00,
2013-02-16 18:51:00,21.0,17.0,29.89,ENE,65,3.0,12.0,86,0.00,,,0.00,,2013-02-17 03:51:00,
2013-02-16 19:01:00,21.0,17.0,29.88,NE,50,5.0,14.0,85,0.00,,,0.00,,2013-02-17 04:01:00,
2013-02-16 19:11:00,21.0,17.0,29.88,East,83,3.0,12.0,85,0.00,,,0.00,,2013-02-17 04:11:00,
2013-02-16 19:21:00,21.0,17.0,29.88,East,83,3.0,12.0,85,0.00,,,0.00,,2013-02-17 04:21:00,
2013-02-16 19:31:00,21.0,17.0,29.87,NE,46,3.0,10.0,85,0.00,,,0.00,,2013-02-17 04:31:00,
2013-02-16 19:41:00,21.0,17.0,29.87,NE,46,3.0,10.0,85,0.00,,,0.00,,2013-02-17 04:41:00,
2013-02-16 19:51:00,21.0,18.0,29.86,ENE,68,6.0,12.0,88,0.00,,,0.00,,2013-02-17 04:51:00,
2013-02-16 20:01:00,21.0,17.0,29.85,NE,50,5.0,13.0,86,0.00,,,0.00,,2013-02-17 05:01:00,
2013-02-16 20:11:00,21.0,17.0,29.85,NE,50,5.0,13.0,86,0.00,,,0.00,,2013-02-17 05:11:00,
2013-02-16 20:22:00,21.0,17.0,29.85,NE,50,5.0,13.0,86,0.00,,,0.00,,2013-02-17 05:22:00,
2013-02-16 20:32:00,20.0,17.0,29.84,NE,39,7.0,15.0,88,0.00,,,0.00,,2013-02-17 05:32:00,
2013-02-16 20:42:00,20.0,17.0,29.84,NE,39,7.0,15.0,88,0.00,,,0.00,,2013-02-17 05:42:00,
2013-02-16 20:52:00,20.0,17.0,29.84,NE,39,7.0,15.0,88,0.00,,,0.00,,2013-02-17 05:52:00,
2013-02-16 21:02:00,20.0,17.0,29.82,NE,36,8.0,16.0,89,0.00,,,0.00,,2013-02-17 06:02:00,
2013-02-16 21:11:00,20.0,17.0,29.82,NE,36,8.0,16.0,89,0.00,,,0.00,,2013-02-17 06:11:00,
2013-02-16 21:21:00,20.0,17.0,29.82,NE,55,6.0,16.0,89,0.00,,,0.00,,2013-02-17 06:21:00,
2013-02-16 21:31:00,20.0,17.0,29.81,NE,54,5.0,17.0,89,0.00,,,0.00,,2013-02-17 06:31:00,
2013-02-16 21:41:00,20.0,17.0,29.81,NE,54,5.0,17.0,89,0.00,,,0.00,,2013-02-17 06:41:00,
2013-02-16 21:51:00,20.0,18.0,29.80,NE,46,6.0,20.0,90,0.00,,,0.00,,2013-02-17 06:51:00,
2013-02-16 22:01:00,20.0,18.0,29.79,NE,48,6.0,20.0,90,0.00,,,0.00,,2013-02-17 07:01:00,
2013-02-16 22:11:00,20.0,18.0,29.78,NE,44,6.0,20.0,90,0.00,,,0.00,,2013-02-17 07:11:00,
2013-02-16 22:21:00,20.0,18.0,29.78,NE,44,6.0,20.0,90,0.00,,,0.00,,2013-02-17 07:21:00,
2013-02-16 22:31:00,20.0,18.0,29.78,NE,47,10.0,18.0,91,0.00,,,0.00,,2013-02-17 07:31:00,
2013-02-16 22:41:00,20.0,18.0,29.78,NE,47,10.0,18.0,91,0.00,,,0.00,,2013-02-17 07:41:00,
2013-02-16 22:51:00,20.0,18.0,29.78,NE,47,10.0,18.0,91,0.00,,,0.00,,2013-02-17 07:51:00,
2013-02-16 23:01:00,20.0,18.0,29.76,NE,47,5.0,20.0,91,0.00,,,0.00,,2013-02-17 08:01:00,
2013-02-16 23:11:00,20.0,18.0,29.76,NE,47,5.0,20.0,91,0.00,,,0.00,,2013-02-17 08:11:00,
2013-02-16 23:21:00,20.0,18.0,29.76,NE,47,8.0,17.0,91,0.00,,,0.00,,2013-02-17 08:21:00,
2013-02-16 23:31:00,20.0,18.0,29.76,NE,47,8.0,17.0,91,0.00,,,0.00,,2013-02-17 08:31:00,
2013-02-16 23:41:00,20.0,18.0,29.76,NE,47,8.0,17.0,91,0.00,,,0.00,,2013-02-17 08:41:00,
2013-02-16 23:52:00,21.0,19.0,29.75,NE,36,6.0,13.0,91,0.00,,,0.00,,2013-02-17 08:52:00,